createdAt,value
2022-08-12T00:02:02.906Z,1.93
2022-08-12T00:04:52.733Z,1.93
2022-08-12T00:07:39.751Z,1.70
2022-08-12T00:10:26.336Z,2.40
2022-08-12T00:13:12.901Z,1.50
2022-08-12T00:16:01.651Z,2.20
2022-08-12T00:18:47.333Z,2.03
2022-08-12T00:21:33.806Z,2.20
2022-08-12T00:24:24.147Z,1.93
2022-08-12T00:27:10.181Z,1.57
2022-08-12T00:29:56.165Z,1.83
2022-08-12T00:32:43.529Z,2.00
2022-08-12T00:35:39.833Z,2.00
2022-08-12T00:38:26.108Z,2.33
2022-08-12T00:41:13.363Z,1.80
2022-08-12T00:43:47.947Z,2.47
2022-08-12T00:46:36.423Z,2.27
2022-08-12T00:49:05.880Z,2.53
2022-08-12T00:51:48.216Z,3.30
2022-08-12T00:54:16.726Z,2.87
2022-08-12T00:56:46.818Z,2.10
2022-08-12T00:59:15.002Z,1.83
2022-08-12T01:02:02.006Z,2.37
2022-08-12T01:04:51.204Z,2.60
2022-08-12T01:07:37.096Z,2.73
2022-08-12T01:10:32.400Z,1.60
2022-08-12T01:13:10.044Z,1.80
2022-08-12T01:15:49.690Z,2.27
2022-08-12T01:18:19.324Z,1.90
2022-08-12T01:20:51.387Z,1.53
2022-08-12T01:23:37.151Z,2.00
2022-08-12T01:26:07.883Z,1.93
2022-08-12T01:28:36.987Z,1.93
2022-08-12T01:31:06.732Z,1.53
2022-08-12T01:33:39.225Z,2.07
2022-08-12T01:36:10.871Z,1.63
2022-08-12T01:38:39.694Z,2.27
2022-08-12T01:41:10.105Z,1.90
2022-08-12T01:43:38.865Z,1.70
2022-08-12T01:46:09.734Z,1.90
2022-08-12T01:48:51.527Z,2.40
2022-08-12T01:52:21.160Z,1.77
2022-08-12T01:54:20.687Z,1.70
2022-08-12T01:56:53.284Z,2.07
2022-08-12T01:59:42.909Z,2.13
2022-08-12T02:02:12.355Z,2.07
2022-08-12T02:05:10.471Z,1.70
2022-08-12T02:08:03.005Z,2.17
2022-08-12T02:10:56.799Z,1.93
2022-08-12T02:13:48.435Z,2.33
2022-08-12T02:16:30.449Z,1.90
2022-08-12T02:19:22.009Z,1.80
2022-08-12T02:21:55.759Z,2.20
2022-08-12T02:24:25.231Z,1.97
2022-08-12T02:26:58.005Z,2.20
2022-08-12T02:29:27.795Z,2.37
2022-08-12T02:31:56.771Z,2.27
2022-08-12T02:34:25.077Z,2.20
2022-08-12T02:36:56.126Z,2.10
2022-08-12T02:39:33.734Z,2.33
2022-08-12T02:42:04.482Z,1.63
2022-08-12T02:44:40.378Z,1.43
2022-08-12T02:47:55.735Z,1.70
2022-08-12T02:49:58.419Z,2.50
2022-08-12T02:52:27.996Z,2.20
2022-08-12T02:55:01.581Z,1.80
2022-08-12T02:57:29.837Z,1.93
2022-08-12T03:00:00.490Z,2.17
2022-08-12T03:02:29.155Z,2.07
2022-08-12T03:04:58.849Z,2.27
2022-08-12T03:07:56.103Z,2.43
2022-08-12T03:10:36.960Z,1.80
2022-08-12T03:13:07.295Z,2.03
2022-08-12T03:15:37.812Z,1.93
2022-08-12T03:18:23.520Z,1.73
2022-08-12T03:20:56.422Z,2.23
2022-08-12T03:23:30.341Z,2.53
2022-08-12T03:26:01.949Z,2.40
2022-08-12T03:28:49.761Z,2.80
2022-08-12T03:31:21.957Z,2.10
2022-08-12T03:34:01.482Z,2.47
2022-08-12T03:36:32.302Z,3.27
2022-08-12T03:39:35.515Z,2.50
2022-08-12T03:42:14.868Z,2.17
2022-08-12T03:45:11.805Z,2.33
2022-08-12T03:48:02.904Z,2.40
2022-08-12T03:50:49.599Z,2.30
2022-08-12T03:53:41.358Z,2.07
2022-08-12T03:56:27.461Z,1.80
2022-08-12T03:59:13.533Z,2.83
2022-08-12T04:01:42.673Z,2.30
2022-08-12T04:04:12.248Z,2.40
2022-08-12T04:06:44.907Z,2.20
2022-08-12T04:09:16.542Z,2.67
2022-08-12T04:12:03.977Z,2.90
2022-08-12T04:14:33.294Z,2.50
2022-08-12T04:17:02.453Z,3.07
2022-08-12T04:19:32.272Z,2.73
2022-08-12T04:22:03.287Z,2.70
2022-08-12T04:24:35.392Z,2.40
2022-08-12T04:27:07.312Z,2.33
2022-08-12T04:30:31.510Z,2.47
2022-08-12T04:32:23.780Z,2.17
2022-08-12T04:34:53.400Z,2.23
2022-08-12T04:37:21.565Z,3.23
2022-08-12T04:39:50.252Z,2.43
2022-08-12T04:42:18.627Z,2.87
2022-08-12T04:44:47.044Z,3.10
2022-08-12T04:47:16.568Z,2.30
2022-08-12T04:49:46.111Z,2.40
2022-08-12T04:52:16.235Z,2.23
2022-08-12T04:54:44.789Z,3.80
2022-08-12T04:57:12.913Z,2.70
2022-08-12T04:59:48.332Z,2.80
2022-08-12T05:02:21.007Z,2.40
2022-08-12T05:04:52.510Z,2.97
2022-08-12T05:07:24.372Z,3.30
2022-08-12T05:10:00.962Z,3.30
2022-08-12T05:12:41.174Z,2.80
2022-08-12T05:15:19.499Z,2.97
2022-08-12T05:18:00.133Z,2.47
2022-08-12T05:20:30.920Z,2.73
2022-08-12T05:23:13.449Z,2.70
2022-08-12T05:25:43.271Z,2.73
2022-08-12T05:28:13.113Z,2.40
2022-08-12T05:30:42.748Z,3.00
2022-08-12T05:33:11.769Z,2.80
2022-08-12T05:35:43.110Z,2.10
2022-08-12T05:38:31.799Z,2.20
2022-08-12T05:41:00.177Z,3.17
2022-08-12T05:43:28.870Z,2.10
2022-08-12T05:45:57.011Z,3.10
2022-08-12T05:48:25.600Z,2.60
2022-08-12T05:50:53.783Z,2.60
2022-08-12T05:53:23.939Z,2.80
2022-08-12T05:55:53.315Z,2.80
2022-08-12T05:58:21.527Z,2.33
2022-08-12T06:00:49.658Z,2.83
2022-08-12T06:03:19.611Z,2.60
2022-08-12T06:05:55.286Z,2.97
2022-08-12T06:08:31.051Z,2.60
2022-08-12T06:10:59.151Z,2.97
2022-08-12T06:13:52.643Z,2.63
2022-08-12T06:16:16.952Z,2.40
2022-08-12T06:18:45.181Z,2.57
2022-08-12T06:21:14.373Z,2.27
2022-08-12T06:23:45.407Z,2.50
2022-08-12T06:26:16.480Z,2.70
2022-08-12T06:28:45.109Z,2.57
2022-08-12T06:31:26.993Z,2.67
2022-08-12T06:35:22.545Z,3.07
2022-08-12T06:36:44.779Z,2.50
2022-08-12T06:39:15.398Z,2.63
2022-08-12T06:42:27.711Z,2.60
2022-08-12T06:44:50.467Z,2.50
2022-08-12T06:47:19.995Z,2.50
2022-08-12T06:49:48.645Z,2.40
2022-08-12T06:52:17.320Z,2.53
2022-08-12T06:54:46.845Z,1.83
2022-08-12T06:58:06.768Z,2.37
2022-08-12T07:00:04.131Z,2.93
2022-08-12T07:02:36.419Z,2.60
2022-08-12T07:05:05.582Z,2.67
2022-08-12T07:07:33.688Z,2.97
2022-08-12T07:10:07.475Z,3.00
2022-08-12T07:12:36.899Z,2.53
2022-08-12T07:15:05.917Z,3.00
2022-08-12T07:17:37.799Z,3.60
2022-08-12T07:20:09.863Z,2.90
2022-08-12T07:22:39.931Z,2.40
2022-08-12T07:25:28.064Z,3.27
2022-08-12T07:27:57.848Z,2.70
2022-08-12T07:30:26.015Z,3.07
2022-08-12T07:32:57.454Z,3.50
2022-08-12T07:35:30.140Z,2.60
2022-08-12T07:37:58.515Z,2.50
2022-08-12T07:40:29.709Z,2.57
2022-08-12T07:42:58.167Z,2.83
2022-08-12T07:45:26.335Z,2.33
2022-08-12T07:47:54.530Z,2.57
2022-08-12T07:50:23.954Z,3.10
2022-08-12T07:52:52.612Z,2.60
2022-08-12T07:55:20.691Z,2.80
2022-08-12T07:57:57.774Z,3.00
2022-08-12T08:00:26.776Z,2.20
2022-08-12T08:02:55.222Z,2.80
2022-08-12T08:05:25.823Z,2.87
2022-08-12T08:07:57.950Z,2.60
2022-08-12T08:10:26.319Z,3.07
2022-08-12T08:12:54.927Z,3.00
2022-08-12T08:15:44.511Z,3.10
2022-08-12T08:18:25.819Z,2.60
2022-08-12T08:20:54.675Z,2.77
2022-08-12T08:23:29.304Z,3.13
2022-08-12T08:26:03.576Z,2.70
2022-08-12T08:28:36.551Z,2.37
2022-08-12T08:31:07.739Z,2.77
2022-08-12T08:34:04.378Z,2.33
2022-08-12T08:36:24.427Z,2.23
2022-08-12T08:38:53.211Z,3.37
2022-08-12T08:42:14.108Z,3.43
2022-08-12T08:44:36.438Z,2.40
2022-08-12T08:47:05.529Z,2.27
2022-08-12T08:49:37.383Z,2.57
2022-08-12T08:52:06.393Z,2.70
2022-08-12T08:54:34.621Z,2.43
2022-08-12T08:57:03.007Z,2.10
2022-08-12T08:59:31.288Z,2.50
2022-08-12T09:02:02.497Z,2.20
2022-08-12T09:05:11.973Z,1.90
2022-08-12T09:07:51.304Z,2.50
2022-08-12T09:10:09.201Z,2.07
2022-08-12T09:13:02.101Z,2.60
2022-08-12T09:15:35.860Z,2.00
2022-08-12T09:20:55.175Z,1.63
2022-08-12T09:23:57.446Z,1.73
2022-08-12T09:26:11.591Z,2.10
2022-08-12T09:28:41.052Z,2.17
2022-08-12T09:32:08.197Z,1.70
2022-08-12T09:34:27.494Z,2.13
2022-08-12T09:37:01.205Z,3.33
2022-08-12T09:40:01.872Z,1.90
2022-08-12T09:42:43.491Z,2.63
2022-08-12T09:45:24.021Z,2.17
2022-08-12T09:47:58.905Z,2.43
2022-08-12T09:50:29.269Z,1.90
2022-08-12T09:53:15.198Z,1.57
2022-08-12T09:55:59.689Z,1.80
2022-08-12T09:58:58.318Z,1.73
2022-08-12T10:01:25.559Z,1.30
2022-08-12T10:04:05.623Z,1.30
2022-08-12T10:06:36.134Z,1.80
2022-08-12T10:09:08.172Z,1.83
2022-08-12T10:12:09.974Z,1.23
2022-08-12T10:14:52.445Z,2.20
2022-08-12T10:17:22.934Z,2.10
2022-08-12T10:19:52.713Z,1.70
2022-08-12T10:22:38.908Z,1.93
2022-08-12T10:26:35.118Z,1.47
2022-08-12T10:28:33.114Z,1.60
2022-08-12T10:31:04.903Z,2.10
2022-08-12T10:33:54.829Z,1.40
2022-08-12T10:36:40.519Z,1.80
2022-08-12T10:40:00.310Z,1.50
2022-08-12T10:42:29.012Z,1.50
2022-08-12T10:45:01.121Z,1.07
2022-08-12T10:48:19.069Z,2.00
2022-08-12T10:50:28.001Z,1.53
2022-08-12T10:53:01.984Z,1.10
2022-08-12T10:55:31.785Z,1.70
2022-08-12T10:58:14.491Z,1.60
2022-08-12T11:01:26.104Z,1.50
2022-08-12T11:04:20.369Z,1.40
2022-08-12T11:07:06.904Z,1.27
2022-08-12T11:09:18.691Z,1.47
2022-08-12T11:12:56.298Z,1.40
2022-08-12T11:14:58.646Z,2.03
2022-08-12T11:17:34.495Z,1.37
2022-08-12T11:20:15.144Z,1.30
2022-08-12T11:22:57.693Z,1.60
2022-08-12T11:25:56.218Z,1.70
2022-08-12T11:28:17.548Z,1.27
2022-08-12T11:31:01.910Z,1.40
2022-08-12T11:34:06.825Z,1.30
2022-08-12T11:36:22.088Z,1.80
2022-08-12T11:38:51.474Z,1.87
2022-08-12T11:41:31.001Z,1.90
2022-08-12T11:44:07.245Z,1.33
2022-08-12T11:46:51.436Z,1.70
2022-08-12T11:49:31.380Z,1.30
2022-08-12T11:52:27.899Z,1.30
2022-08-12T11:54:54.357Z,1.40
2022-08-12T11:58:10.576Z,1.63
2022-08-12T12:03:01.942Z,1.53
2022-08-12T12:05:41.920Z,1.17
2022-08-12T12:08:40.601Z,1.40
2022-08-12T12:11:09.669Z,1.60
2022-08-12T12:14:07.601Z,1.40
2022-08-12T12:16:27.436Z,1.13
2022-08-12T12:18:58.121Z,1.50
2022-08-12T12:21:47.337Z,1.40
2022-08-12T12:24:14.576Z,1.70
2022-08-12T12:27:00.722Z,1.47
2022-08-12T12:30:18.574Z,1.80
2022-08-12T12:32:29.206Z,1.90
2022-08-12T12:35:44.333Z,1.70
2022-08-12T12:38:03.917Z,1.70
2022-08-12T12:40:34.626Z,1.30
2022-08-12T12:43:08.531Z,1.30
2022-08-12T12:45:39.284Z,1.50
2022-08-12T12:48:10.715Z,1.57
2022-08-12T12:50:42.446Z,1.30
2022-08-12T12:53:46.662Z,1.80
2022-08-12T12:56:04.222Z,1.80
2022-08-12T12:58:32.629Z,1.53
2022-08-12T13:01:04.790Z,1.30
2022-08-12T13:03:55.383Z,1.17
2022-08-12T13:06:25.534Z,1.00
2022-08-12T13:09:03.047Z,1.27
2022-08-12T13:11:41.494Z,1.40
2022-08-12T13:14:28.214Z,0.90
2022-08-12T13:16:58.407Z,1.40
2022-08-12T13:19:37.467Z,1.47
2022-08-12T13:22:21.246Z,1.60
2022-08-12T13:24:56.799Z,1.23
2022-08-12T13:27:34.686Z,1.17
2022-08-12T13:30:06.621Z,1.20
2022-08-12T13:32:35.206Z,1.17
2022-08-12T13:35:20.105Z,1.03
2022-08-12T13:37:55.845Z,1.00
2022-08-12T13:40:24.700Z,1.77
2022-08-12T13:42:57.797Z,1.40
2022-08-12T13:45:26.508Z,1.40
2022-08-12T13:47:56.533Z,1.30
2022-08-12T13:50:29.278Z,1.07
2022-08-12T13:52:57.569Z,1.03
2022-08-12T13:55:30.996Z,1.20
2022-08-12T13:58:05.255Z,0.80
2022-08-12T14:00:45.936Z,0.80
2022-08-12T14:03:14.572Z,1.10
2022-08-12T14:05:44.322Z,1.80
2022-08-12T14:08:14.289Z,1.30
2022-08-12T14:10:55.667Z,0.87
2022-08-12T14:14:03.595Z,0.80
2022-08-12T14:16:37.693Z,1.00
2022-08-12T14:19:18.457Z,1.03
2022-08-12T14:21:59.182Z,1.03
2022-08-12T14:24:35.616Z,1.03
2022-08-12T14:27:09.101Z,1.23
2022-08-12T14:30:05.850Z,0.90
2022-08-12T14:32:27.012Z,1.33
2022-08-12T14:34:56.554Z,1.17
2022-08-12T14:37:57.696Z,1.20
2022-08-12T14:40:18.503Z,1.10
2022-08-12T14:42:47.352Z,1.00
2022-08-12T14:45:15.702Z,1.03
2022-08-12T14:47:58.344Z,1.43
2022-08-12T14:50:41.444Z,1.00
2022-08-12T14:59:23.295Z,1.07
2022-08-12T15:01:51.991Z,1.20
2022-08-12T15:04:29.233Z,1.33
2022-08-12T15:06:58.169Z,1.13
2022-08-12T15:09:31.457Z,0.90
2022-08-12T15:12:04.133Z,1.00
2022-08-12T15:14:32.525Z,0.93
2022-08-12T15:17:06.545Z,1.30
2022-08-12T15:20:30.766Z,1.20
2022-08-12T15:22:38.265Z,0.83
2022-08-12T15:25:10.287Z,1.10
2022-08-12T15:28:04.482Z,0.80
2022-08-12T15:30:35.026Z,1.17
2022-08-12T15:33:14.847Z,1.00
2022-08-12T15:35:50.466Z,0.93
2022-08-12T15:38:24.578Z,1.23
2022-08-12T15:40:59.095Z,1.90
2022-08-12T15:44:15.800Z,1.50
2022-08-12T15:46:21.271Z,1.30
2022-08-12T15:48:55.571Z,1.60
2022-08-12T15:51:58.773Z,1.50
2022-08-12T15:54:33.297Z,1.40
2022-08-12T15:57:07.950Z,1.30
2022-08-12T16:00:00.215Z,1.40
2022-08-12T16:02:29.371Z,1.37
2022-08-12T16:04:58.742Z,1.37
2022-08-12T16:07:30.206Z,1.23
2022-08-12T16:10:06.998Z,0.83
2022-08-12T16:12:55.049Z,1.33
2022-08-12T16:15:25.064Z,1.07
2022-08-12T16:18:15.161Z,1.23
2022-08-12T16:20:46.641Z,1.30
2022-08-12T16:23:36.266Z,1.30
2022-08-12T16:26:14.607Z,1.63
2022-08-12T16:28:47.549Z,1.43
2022-08-12T16:31:22.990Z,1.53
2022-08-12T16:33:59.028Z,1.60
2022-08-12T16:36:30.494Z,1.33
2022-08-12T16:39:01.789Z,1.17
2022-08-12T16:41:39.482Z,1.53
2022-08-12T16:44:10.067Z,1.70
2022-08-12T16:46:38.960Z,1.43
2022-08-12T16:49:13.138Z,0.90
2022-08-12T16:51:47.257Z,1.43
2022-08-12T16:54:17.244Z,1.67
2022-08-12T16:56:54.890Z,1.60
2022-08-12T16:59:31.211Z,1.10
2022-08-12T17:02:18.071Z,1.47
2022-08-12T17:05:03.657Z,1.40
2022-08-12T17:07:36.587Z,1.00
2022-08-12T17:10:07.477Z,1.10
2022-08-12T17:12:37.501Z,1.17
2022-08-12T17:15:50.887Z,1.20
2022-08-12T17:18:15.175Z,1.10
2022-08-12T17:20:48.510Z,1.03
2022-08-12T17:23:19.390Z,1.20
2022-08-12T17:25:50.402Z,1.10
2022-08-12T17:28:19.667Z,1.37
2022-08-12T17:30:59.469Z,1.47
2022-08-12T17:33:33.908Z,1.10
2022-08-12T17:36:05.782Z,1.20
2022-08-12T17:38:35.754Z,1.40
2022-08-12T17:41:23.295Z,1.50
2022-08-12T17:43:58.927Z,1.50
2022-08-12T17:46:31.960Z,1.27
2022-08-12T17:49:06.680Z,1.03
2022-08-12T17:51:50.121Z,1.20
2022-08-12T17:54:18.807Z,1.37
2022-08-12T17:56:47.721Z,1.40
2022-08-12T17:59:47.926Z,1.07
2022-08-12T18:02:13.605Z,1.20
2022-08-12T18:05:04.823Z,1.20
2022-08-12T18:07:32.234Z,0.90
2022-08-12T18:10:05.562Z,1.00
2022-08-12T18:12:42.417Z,1.50
2022-08-12T18:15:26.945Z,1.30
2022-08-12T18:18:17.186Z,1.33
2022-08-12T18:20:47.847Z,2.07
2022-08-12T18:23:23.783Z,1.30
2022-08-12T18:26:16.835Z,0.97
2022-08-12T18:28:48.118Z,1.00
2022-08-12T18:31:17.888Z,1.30
2022-08-12T18:33:48.299Z,0.93
2022-08-12T18:36:22.563Z,1.33
2022-08-12T18:38:56.191Z,0.90
2022-08-12T18:41:30.682Z,1.03
2022-08-12T18:44:08.163Z,1.13
2022-08-12T18:46:54.493Z,1.23
2022-08-12T18:49:30.606Z,1.00
2022-08-12T18:52:04.893Z,1.27
2022-08-12T18:54:36.113Z,1.30
2022-08-12T18:57:19.511Z,1.40
2022-08-12T19:00:00.731Z,1.00
2022-08-12T19:02:33.954Z,1.10
2022-08-12T19:05:10.068Z,1.43
2022-08-12T19:08:00.062Z,1.50
2022-08-12T19:10:30.501Z,1.37
2022-08-12T19:13:33.076Z,0.90
2022-08-12T19:16:10.802Z,1.40
2022-08-12T19:18:41.034Z,1.77
2022-08-12T19:21:16.010Z,1.00
2022-08-12T19:24:05.562Z,1.00
2022-08-12T19:26:33.418Z,1.20
2022-08-12T19:29:05.072Z,1.20
2022-08-12T19:31:57.300Z,1.03
2022-08-12T19:37:27.339Z,1.10
2022-08-12T19:40:09.495Z,1.37
2022-08-12T19:42:57.485Z,1.30
2022-08-12T19:45:43.392Z,1.10
2022-08-12T19:48:21.361Z,0.77
2022-08-12T19:50:53.012Z,1.10
2022-08-12T19:53:24.208Z,0.93
2022-08-12T19:55:54.029Z,1.07
2022-08-12T19:58:23.784Z,1.20
2022-08-12T20:00:54.735Z,1.27
2022-08-12T20:03:39.115Z,0.80
2022-08-12T20:06:16.136Z,1.00
2022-08-12T20:08:56.414Z,1.23
2022-08-12T20:12:09.281Z,1.10
2022-08-12T20:14:18.063Z,1.13
2022-08-12T20:16:52.902Z,1.30
2022-08-12T20:19:28.646Z,1.03
2022-08-12T20:22:24.200Z,1.20
2022-08-12T20:25:01.401Z,1.30
2022-08-12T20:28:04.396Z,1.30
2022-08-12T20:30:37.417Z,1.20
2022-08-12T20:33:18.483Z,1.10
2022-08-12T20:36:13.307Z,0.90
2022-08-12T20:38:40.097Z,1.30
2022-08-12T20:41:17.858Z,1.07
2022-08-12T20:43:52.120Z,1.30
2022-08-12T20:46:21.256Z,1.50
2022-08-12T20:48:54.315Z,1.10
2022-08-12T20:51:24.001Z,1.03
2022-08-12T20:53:59.294Z,0.90
2022-08-12T20:56:34.611Z,1.30
2022-08-12T20:59:05.559Z,1.30
2022-08-12T21:01:46.706Z,1.20
2022-08-12T21:04:35.112Z,1.90
2022-08-12T21:07:09.356Z,1.70
2022-08-12T21:09:42.725Z,2.17
2022-08-12T21:12:27.383Z,1.63
2022-08-12T21:15:23.634Z,1.47
2022-08-12T21:18:07.896Z,1.30
2022-08-12T21:20:37.872Z,1.37
2022-08-12T21:23:07.642Z,1.43
2022-08-12T21:25:45.733Z,1.17
2022-08-12T21:28:17.491Z,1.00
2022-08-12T21:31:11.484Z,1.10
2022-08-12T21:33:58.869Z,1.10
2022-08-12T21:36:34.955Z,1.60
2022-08-12T21:39:19.120Z,1.47
2022-08-12T21:41:51.050Z,0.83
2022-08-12T21:44:24.749Z,1.40
2022-08-12T21:47:21.558Z,1.30
2022-08-12T21:50:04.350Z,1.27
2022-08-12T21:52:36.878Z,1.40
2022-08-12T21:55:18.389Z,1.33
2022-08-12T21:57:53.541Z,1.27
2022-08-12T22:00:33.279Z,1.20
2022-08-12T22:03:25.136Z,1.53
2022-08-12T22:06:26.491Z,1.30
2022-08-12T22:09:16.021Z,1.20
2022-08-12T22:11:49.395Z,1.10
2022-08-12T22:14:25.827Z,1.37
2022-08-12T22:16:57.145Z,1.73
2022-08-12T22:19:27.349Z,1.70
2022-08-12T22:21:58.353Z,1.20
2022-08-12T22:24:29.870Z,0.93
2022-08-12T22:27:18.299Z,1.23
2022-08-12T22:30:05.298Z,1.30
2022-08-12T22:32:36.539Z,1.33
2022-08-12T22:35:24.127Z,1.30
2022-08-12T22:37:57.202Z,1.10
2022-08-12T22:40:25.309Z,1.50
2022-08-12T22:43:15.619Z,1.47
2022-08-12T22:46:01.748Z,1.83
2022-08-12T22:48:31.648Z,1.70
2022-08-12T22:51:00.291Z,1.93
2022-08-12T22:53:35.831Z,1.40
2022-08-12T22:56:07.253Z,1.83
2022-08-12T22:58:40.267Z,2.10
2022-08-12T23:01:21.125Z,2.07
2022-08-12T23:04:02.972Z,1.43
2022-08-12T23:06:31.245Z,1.80
2022-08-12T23:08:59.515Z,1.30
2022-08-12T23:11:33.863Z,1.40
2022-08-12T23:14:08.914Z,1.40
2022-08-12T23:16:39.595Z,1.90
2022-08-12T23:19:18.010Z,1.67
2022-08-12T23:22:05.649Z,1.50
2022-08-12T23:24:56.357Z,1.43
2022-08-12T23:27:50.531Z,1.20
2022-08-12T23:30:25.063Z,1.60
2022-08-12T23:33:00.688Z,1.57
2022-08-12T23:35:53.822Z,1.87
2022-08-12T23:38:31.577Z,1.50
2022-08-12T23:41:01.794Z,1.50
2022-08-12T23:43:39.997Z,1.63
2022-08-12T23:46:09.017Z,1.70
2022-08-12T23:48:37.915Z,1.73
2022-08-12T23:51:21.715Z,1.60
2022-08-12T23:53:55.013Z,1.90
2022-08-12T23:56:25.257Z,2.03
2022-08-12T23:58:55.359Z,2.10
